This demonstration page uses our WeatherBlox Daily Observations layout. Learn more.

38.88101, -77.10428

Hourly Observations for November 1, 2016

Temp ( °F °C ) Dew Point ( °F °C ) Humidity (%) Winds ( mph kmh ) Pressure ( in mb ) Visibility ( mi km ) Precip ( " mm )
12:52 am 00:52 Cloudy 51 10.6 39 3.9 64 64 Calm 30.3 1026 10 16.09344 0 0
1:52 am 01:52 Mostly Cloudy 49 9.4 42 5.6 77 77 NE 3 6 30.3 1026 10 16.09344 0 0
2:52 am 02:52 Mostly Cloudy 48 8.9 43 6.1 83 83 ENE 6 9 30.33 1027 10 16.09344 0 0
3:52 am 03:52 Mostly Cloudy 48 8.9 43 6.1 83 83 ENE 6 9 30.33 1027 10 16.09344 0 0
4:52 am 04:52 Mostly Cloudy 49 9.4 43 6.1 80 80 Calm 30.33 1027 10 16.09344 0 0
5:52 am 05:52 Cloudy 49 9.4 43 6.1 80 80 Calm 30.33 1027 10 16.09344 0 0
6:52 am 06:52 Cloudy 50 10 44 6.7 80 80 Calm 30.33 1027 10 16.09344 0 0
7:52 am 07:52 Cloudy 51 10.6 43 6.1 74 74 Calm 30.33 1027 10 16.09344 0 0
8:52 am 08:52 Cloudy 52 11.1 44 6.7 75 75 SE 3 6 30.36 1028 10 16.09344 0 0
9:52 am 09:52 Cloudy 53 11.7 44 6.7 72 72 SSE 5 7 30.36 1028 10 16.09344 0 0
10:52 am 10:52 Cloudy 55 12.8 46 7.8 72 72 S 6 9 30.36 1028 10 16.09344 0 0
11:52 am 11:52 Cloudy 57 13.9 48 8.9 72 72 S 8 13 30.36 1028 10 16.09344 0 0
12:52 pm 12:52 Cloudy 59 15 48 8.9 67 67 S 9 15 30.33 1027 10 16.09344 0 0
1:52 pm 13:52 Cloudy 59 15 48 8.9 67 67 S 10 17 30.33 1027 10 16.09344 0 0
2:52 pm 14:52 Cloudy 60 15.6 48 8.9 65 65 S 8 13 30.3 1026 10 16.09344 0 0
3:52 pm 15:52 Cloudy 61 16.1 48 8.9 63 63 S 9 15 30.3 1026 10 16.09344 0 0
4:52 pm 16:52 Cloudy 61 16.1 50 10 67 67 S 8 13 30.3 1026 10 16.09344 0 0
5:52 pm 17:52 Cloudy 60 15.6 49 9.4 67 67 S 8 13 30.3 1026 10 16.09344 0 0
6:05 pm 18:05 Cloudy 60 15.6 50 10 70 70 S 9 15 30.3 1026 10 16.09344 0 0
6:52 pm 18:52 Cloudy 60 15.6 50 10 70 70 S 9 15 30.3 1026 10 16.09344 0 0
7:52 pm 19:52 Mostly Cloudy 54 12 39 4 58 58 E 5 7 30.27 1025 10 16.09344 0 0
8:41 pm 20:41 Partly Cloudy 58 14.4 50 10 75 75 SSE 7 11 30.3 1026 10 16.09344 0 0
8:52 pm 20:52 Mostly Cloudy 58 14.4 50 10 75 75 S 7 11 30.3 1026 10 16.09344 0 0
9:52 pm 21:52 Partly Cloudy 57 13.9 51 10.6 81 81 S 7 11 30.3 1026 10 16.09344 0 0
10:52 pm 22:52 Mostly Cloudy 57 13.9 51 10.6 81 81 SSW 5 7 30.3 1026 10 16.09344 0 0
11:19 pm 23:19 Cloudy 57 13.9 52 11.1 83 83 SSW 5 7 30.3 1026 10 16.09344 0 0
11:52 pm 23:52 Mostly Cloudy 56 13.3 52 11.1 87 87 S 5 7 30.3 1026 10 16.09344 0 0

Powered by AerisWeather